createdAt,value
2022-07-26T00:01:56.821Z,10.93
2022-07-26T00:04:23.902Z,25.50
2022-07-26T00:06:50.843Z,13.50
2022-07-26T00:09:17.787Z,10.20
2022-07-26T00:11:44.836Z,14.27
2022-07-26T00:14:11.909Z,11.38
2022-07-26T00:16:39.325Z,9.60
2022-07-26T00:19:09.940Z,8.18
2022-07-26T00:21:40.589Z,9.30
2022-07-26T00:24:08.961Z,11.25
2022-07-26T00:26:36.439Z,9.82
2022-07-26T00:29:06.204Z,11.02
2022-07-26T00:31:33.566Z,11.30
2022-07-26T00:34:00.697Z,8.90
2022-07-26T00:36:28.966Z,8.80
2022-07-26T00:38:55.984Z,10.07
2022-07-26T00:41:22.884Z,10.07
2022-07-26T00:43:57.548Z,12.95
2022-07-26T00:46:25.082Z,10.20
2022-07-26T00:48:52.169Z,9.40
2022-07-26T00:51:20.950Z,10.68
2022-07-26T00:53:48.574Z,10.57
2022-07-26T00:56:16.408Z,10.95
2022-07-26T00:58:44.408Z,11.20
2022-07-26T01:01:11.756Z,8.43
2022-07-26T01:03:39.586Z,10.55
2022-07-26T01:06:07.010Z,9.43
2022-07-26T01:08:34.004Z,11.38
2022-07-26T01:11:01.059Z,10.13
2022-07-26T01:13:31.868Z,12.52
2022-07-26T01:16:01.756Z,9.05
2022-07-26T01:18:28.758Z,10.15
2022-07-26T01:20:57.875Z,11.43
2022-07-26T01:23:24.803Z,10.98
2022-07-26T01:25:51.727Z,9.82
2022-07-26T01:28:20.127Z,12.80
2022-07-26T01:30:49.150Z,12.63
2022-07-26T01:33:16.285Z,9.90
2022-07-26T01:35:43.267Z,10.45
2022-07-26T01:38:10.253Z,13.18
2022-07-26T01:40:37.157Z,11.98
2022-07-26T01:43:04.137Z,10.43
2022-07-26T01:45:31.842Z,13.80
2022-07-26T01:47:58.790Z,11.98
2022-07-26T01:50:25.764Z,11.10
2022-07-26T01:52:52.843Z,12.38
2022-07-26T01:55:19.913Z,11.43
2022-07-26T01:57:46.841Z,12.77
2022-07-26T02:00:14.342Z,13.32
2022-07-26T02:02:41.403Z,11.38
2022-07-26T02:05:09.474Z,14.77
2022-07-26T02:07:44.470Z,12.63
2022-07-26T02:10:13.512Z,16.95
2022-07-26T02:12:42.279Z,16.00
2022-07-26T02:15:12.532Z,16.55
2022-07-26T02:17:39.465Z,17.00
2022-07-26T02:20:07.412Z,13.65
2022-07-26T02:22:35.060Z,14.45
2022-07-26T02:25:05.302Z,17.13
2022-07-26T02:27:33.029Z,16.63
2022-07-26T02:30:00.166Z,12.35
2022-07-26T02:32:27.110Z,14.15
2022-07-26T02:34:54.050Z,10.77
2022-07-26T02:37:20.974Z,10.82
2022-07-26T02:39:47.895Z,11.38
2022-07-26T02:42:14.976Z,12.57
2022-07-26T02:44:41.907Z,13.60
2022-07-26T02:47:08.819Z,11.32
2022-07-26T02:49:39.623Z,12.30
2022-07-26T02:52:06.702Z,11.38
2022-07-26T03:12:56.753Z,29.00
2022-07-26T03:15:23.728Z,27.17
2022-07-26T03:17:50.810Z,30.85
2022-07-26T03:20:17.790Z,31.33
2022-07-26T03:22:44.729Z,37.75
2022-07-26T03:25:11.757Z,34.45
2022-07-26T03:27:38.707Z,29.23
2022-07-26T03:30:06.882Z,30.00
2022-07-26T03:32:33.871Z,34.65
2022-07-26T03:35:00.783Z,32.63
2022-07-26T03:37:27.762Z,29.05
2022-07-26T03:40:13.741Z,34.33
2022-07-26T03:42:40.623Z,41.15
2022-07-26T03:45:09.485Z,36.65
2022-07-26T03:47:37.407Z,38.75
2022-07-26T03:50:08.363Z,38.75
2022-07-26T03:52:35.622Z,38.05
2022-07-26T03:55:22.560Z,39.60
2022-07-26T03:57:49.581Z,34.42
2022-07-26T04:00:16.584Z,32.05
2022-07-26T04:02:43.660Z,34.30
2022-07-26T04:05:11.431Z,30.08
2022-07-26T04:07:52.607Z,31.98
2022-07-26T04:10:22.390Z,30.40
2022-07-26T04:12:52.099Z,31.55
2022-07-26T04:15:21.105Z,33.42
2022-07-26T04:17:48.591Z,29.05
2022-07-26T04:20:16.086Z,29.02
2022-07-26T04:22:43.102Z,29.65
2022-07-26T04:25:10.367Z,32.33
2022-07-26T04:27:37.781Z,29.42
2022-07-26T04:30:10.960Z,35.17
2022-07-26T04:32:41.621Z,31.80
2022-07-26T04:35:09.091Z,39.80
2022-07-26T04:37:41.422Z,34.38
2022-07-26T04:40:09.212Z,29.25
2022-07-26T04:42:36.855Z,32.53
2022-07-26T04:45:08.334Z,31.15
2022-07-26T04:47:36.592Z,39.83
2022-07-26T04:50:04.590Z,33.60
2022-07-26T04:52:31.542Z,36.30
2022-07-26T04:54:59.654Z,35.05
2022-07-26T04:57:26.635Z,32.75
2022-07-26T05:00:10.123Z,35.97
2022-07-26T05:02:41.196Z,36.83
2022-07-26T05:05:09.193Z,35.83
2022-07-26T05:07:47.844Z,40.28
2022-07-26T05:10:17.602Z,36.63
2022-07-26T05:12:46.799Z,31.63
2022-07-26T05:15:14.746Z,40.97
2022-07-26T05:17:43.478Z,34.67
2022-07-26T05:20:14.937Z,38.70
2022-07-26T05:22:42.560Z,34.28
2022-07-26T05:25:09.950Z,30.67
2022-07-26T05:27:37.284Z,32.53
2022-07-26T05:30:04.556Z,35.50
2022-07-26T05:32:31.455Z,35.13
2022-07-26T05:34:58.440Z,42.67
2022-07-26T05:37:25.550Z,35.78
2022-07-26T05:39:52.437Z,31.92
2022-07-26T05:42:19.379Z,29.55
2022-07-26T05:44:46.243Z,29.23
2022-07-26T05:47:13.374Z,33.47
2022-07-26T05:49:40.881Z,28.95
2022-07-26T05:52:11.165Z,26.90
2022-07-26T05:54:38.191Z,29.05
2022-07-26T05:57:05.159Z,28.33
2022-07-26T05:59:32.195Z,31.25
2022-07-26T06:01:59.504Z,29.02
2022-07-26T06:04:27.310Z,21.33
2022-07-26T06:06:55.235Z,23.35
2022-07-26T06:09:24.393Z,18.52
2022-07-26T06:11:51.731Z,29.08
2022-07-26T06:14:19.917Z,23.50
2022-07-26T06:16:48.238Z,21.33
2022-07-26T06:19:15.645Z,35.47
2022-07-26T06:21:42.920Z,23.83
2022-07-26T06:24:10.617Z,27.63
2022-07-26T06:26:37.914Z,25.08
2022-07-26T06:29:04.886Z,20.23
2022-07-26T06:31:31.995Z,17.08
2022-07-26T06:33:59.112Z,17.20
2022-07-26T06:36:30.244Z,14.52
2022-07-26T06:38:57.946Z,13.50
2022-07-26T06:41:25.027Z,11.18
2022-07-26T06:43:52.020Z,14.80
2022-07-26T06:46:21.207Z,12.77
2022-07-26T06:48:52.635Z,13.23
2022-07-26T06:51:20.257Z,11.52
2022-07-26T06:53:47.208Z,18.48
2022-07-26T06:56:15.167Z,14.05
2022-07-26T06:58:42.854Z,11.57
2022-07-26T07:01:09.986Z,10.63
2022-07-26T07:03:37.599Z,12.27
2022-07-26T07:06:04.779Z,10.70
2022-07-26T07:08:31.871Z,16.73
2022-07-26T07:10:59.043Z,10.02
2022-07-26T07:13:26.127Z,8.30
2022-07-26T07:15:53.742Z,11.38
2022-07-26T07:18:21.679Z,8.52
2022-07-26T07:20:48.754Z,7.22
2022-07-26T07:23:15.774Z,12.68
2022-07-26T07:25:44.551Z,10.68
2022-07-26T07:28:11.967Z,15.13
2022-07-26T07:30:38.910Z,6.47
2022-07-26T07:33:09.566Z,13.13
2022-07-26T07:35:50.512Z,8.48
2022-07-26T07:38:17.661Z,10.38
2022-07-26T07:40:44.686Z,9.93
2022-07-26T07:43:11.740Z,11.90
2022-07-26T07:45:38.759Z,11.18
2022-07-26T07:48:06.287Z,9.77
2022-07-26T07:50:33.429Z,12.32
2022-07-26T07:53:01.970Z,10.73
2022-07-26T07:55:41.288Z,9.68
2022-07-26T07:58:11.346Z,10.20
2022-07-26T08:00:38.889Z,10.43
2022-07-26T08:03:05.991Z,11.02
2022-07-26T08:05:32.999Z,8.68
2022-07-26T08:08:00.087Z,10.27
2022-07-26T08:10:27.536Z,8.77
2022-07-26T08:12:54.439Z,9.13
2022-07-26T08:15:23.542Z,9.80
2022-07-26T08:17:54.636Z,10.07
2022-07-26T08:20:22.940Z,10.73
2022-07-26T08:22:52.495Z,10.10
2022-07-26T08:25:19.989Z,9.18
2022-07-26T08:28:02.636Z,8.98
2022-07-26T08:30:31.192Z,9.57
2022-07-26T08:32:58.352Z,10.10
2022-07-26T08:35:25.388Z,10.68
2022-07-26T08:37:52.463Z,11.30
2022-07-26T08:40:19.450Z,10.48
2022-07-26T08:42:52.633Z,10.75
2022-07-26T08:45:28.359Z,7.95
2022-07-26T08:48:16.612Z,10.13
2022-07-26T08:50:43.077Z,9.38
2022-07-26T08:53:12.161Z,7.95
2022-07-26T08:58:26.467Z,7.28
2022-07-26T09:01:14.134Z,6.88
2022-07-26T09:03:42.759Z,7.68
2022-07-26T09:06:16.625Z,9.65
2022-07-26T09:08:44.703Z,11.30
2022-07-26T09:11:23.692Z,7.13
2022-07-26T09:13:59.326Z,6.57
2022-07-26T09:16:27.289Z,7.50
2022-07-26T09:18:55.152Z,6.18
2022-07-26T09:21:28.266Z,7.38
2022-07-26T09:23:55.691Z,7.47
2022-07-26T09:26:26.125Z,8.77
2022-07-26T09:29:08.906Z,7.20
2022-07-26T09:31:37.605Z,6.10
2022-07-26T09:34:06.146Z,6.15
2022-07-26T09:36:33.820Z,6.50
2022-07-26T09:39:03.310Z,6.30
2022-07-26T09:41:36.218Z,6.13
2022-07-26T09:44:07.084Z,7.78
2022-07-26T09:46:35.837Z,6.05
2022-07-26T09:49:19.861Z,7.13
2022-07-26T09:51:49.400Z,6.78
2022-07-26T09:54:33.713Z,6.28
2022-07-26T09:57:00.900Z,5.93
2022-07-26T09:59:29.331Z,9.60
2022-07-26T10:01:57.939Z,6.13
2022-07-26T10:04:25.515Z,6.93
2022-07-26T10:06:52.923Z,9.27
2022-07-26T10:09:22.997Z,6.47
2022-07-26T10:12:03.472Z,6.47
2022-07-26T10:14:33.249Z,6.88
2022-07-26T10:17:01.950Z,5.43
2022-07-26T10:19:47.534Z,5.07
2022-07-26T10:22:32.170Z,6.13
2022-07-26T10:25:19.226Z,5.85
2022-07-26T10:27:51.436Z,7.97
2022-07-26T10:30:18.410Z,6.90
2022-07-26T10:32:51.457Z,6.18
2022-07-26T10:35:30.949Z,8.40
2022-07-26T10:38:06.796Z,6.85
2022-07-26T10:40:34.603Z,7.07
2022-07-26T10:46:31.033Z,7.85
2022-07-26T10:49:07.621Z,9.57
2022-07-26T10:51:39.760Z,6.88
2022-07-26T10:54:12.757Z,7.80
2022-07-26T10:59:07.902Z,8.75
2022-07-26T11:01:36.172Z,7.93
2022-07-26T11:04:03.726Z,8.63
2022-07-26T11:06:30.651Z,8.00
2022-07-26T11:08:58.000Z,8.02
2022-07-26T11:11:32.781Z,7.57
2022-07-26T11:14:11.714Z,6.40
2022-07-26T11:16:53.044Z,5.85
2022-07-26T11:19:23.452Z,8.93
2022-07-26T11:22:01.479Z,8.25
2022-07-26T11:24:29.262Z,7.80
2022-07-26T11:26:57.191Z,6.07
2022-07-26T11:29:40.687Z,5.55
2022-07-26T11:32:18.726Z,5.70
2022-07-26T11:34:46.950Z,6.20
2022-07-26T11:37:14.476Z,6.72
2022-07-26T11:39:41.386Z,6.72
2022-07-26T11:42:10.080Z,6.25
2022-07-26T11:44:37.239Z,5.53
2022-07-26T11:47:20.305Z,9.48
2022-07-26T11:50:00.287Z,5.95
2022-07-26T11:52:35.632Z,7.28
2022-07-26T11:55:02.595Z,6.25
2022-07-26T11:57:31.515Z,5.32
2022-07-26T12:00:00.382Z,5.55
2022-07-26T12:02:28.594Z,6.28
2022-07-26T12:05:16.157Z,7.10
2022-07-26T12:07:57.565Z,7.22
2022-07-26T12:10:24.935Z,5.88
2022-07-26T12:13:16.214Z,4.32
2022-07-26T12:15:53.848Z,4.75
2022-07-26T12:18:32.860Z,6.05
2022-07-26T12:21:05.048Z,4.70
2022-07-26T12:23:46.350Z,7.97
2022-07-26T12:26:27.019Z,6.05
2022-07-26T12:28:54.937Z,6.32
2022-07-26T12:31:28.221Z,8.15
2022-07-26T12:33:55.636Z,5.20
2022-07-26T12:36:27.771Z,6.82
2022-07-26T12:38:57.979Z,5.18
2022-07-26T12:41:39.490Z,5.82
2022-07-26T12:44:11.561Z,6.90
2022-07-26T12:46:39.349Z,5.65
2022-07-26T12:49:06.434Z,6.32
2022-07-26T12:51:34.171Z,7.32
2022-07-26T12:54:01.100Z,7.47
2022-07-26T12:56:28.015Z,5.28
2022-07-26T12:59:01.049Z,6.18
2022-07-26T13:01:29.644Z,5.43
2022-07-26T13:03:56.702Z,5.78
2022-07-26T13:06:23.703Z,5.93
2022-07-26T13:08:50.715Z,5.45
2022-07-26T13:11:17.716Z,5.80
2022-07-26T13:13:44.740Z,6.32
2022-07-26T13:16:12.426Z,7.75
2022-07-26T13:18:39.686Z,7.47
2022-07-26T13:21:06.788Z,4.93
2022-07-26T13:23:35.654Z,8.00
2022-07-26T13:26:04.261Z,4.72
2022-07-26T13:28:34.855Z,5.43
2022-07-26T13:31:02.344Z,6.47
2022-07-26T13:33:29.334Z,7.80
2022-07-26T13:35:56.748Z,6.75
2022-07-26T13:38:23.766Z,4.88
2022-07-26T13:40:50.736Z,7.70
2022-07-26T13:43:17.650Z,4.93
2022-07-26T13:45:44.552Z,4.70
2022-07-26T13:48:11.502Z,6.28
2022-07-26T13:50:38.446Z,5.05
2022-07-26T13:53:05.347Z,6.85
2022-07-26T13:55:32.390Z,6.25
2022-07-26T13:57:59.266Z,6.65
2022-07-26T14:00:30.051Z,4.78
2022-07-26T14:02:58.214Z,7.53
2022-07-26T14:05:25.451Z,8.05
2022-07-26T14:07:53.176Z,7.95
2022-07-26T14:10:21.973Z,5.40
2022-07-26T14:12:49.280Z,6.95
2022-07-26T14:15:21.432Z,7.47
2022-07-26T14:17:49.564Z,7.32
2022-07-26T14:20:17.399Z,7.35
2022-07-26T14:22:44.826Z,6.10
2022-07-26T14:25:12.220Z,7.10
2022-07-26T14:27:39.404Z,7.18
2022-07-26T14:30:06.897Z,6.63
2022-07-26T14:32:34.029Z,11.00
2022-07-26T14:35:01.047Z,7.40
2022-07-26T14:37:44.997Z,7.28
2022-07-26T14:40:17.155Z,10.48
2022-07-26T14:42:46.099Z,6.45
2022-07-26T14:45:13.704Z,7.20
2022-07-26T14:47:41.091Z,7.72
2022-07-26T14:50:10.055Z,6.28
2022-07-26T14:52:41.751Z,10.00
2022-07-26T14:55:09.358Z,7.47
2022-07-26T14:57:39.500Z,6.40
2022-07-26T15:15:02.026Z,10.68
2022-07-26T15:17:29.011Z,7.53
2022-07-26T15:19:55.996Z,7.50
2022-07-26T15:22:22.920Z,7.18
2022-07-26T15:24:49.991Z,8.93
2022-07-26T15:27:16.928Z,9.90
2022-07-26T15:29:44.706Z,11.02
2022-07-26T15:32:11.710Z,8.48
2022-07-26T15:34:38.764Z,8.00
2022-07-26T15:37:05.767Z,8.45
2022-07-26T15:39:32.827Z,8.00
2022-07-26T15:42:05.442Z,8.18
2022-07-26T15:44:34.766Z,6.18
2022-07-26T15:47:01.871Z,8.82
2022-07-26T15:49:30.872Z,5.38
2022-07-26T15:51:58.014Z,7.50
2022-07-26T15:54:25.085Z,8.98
2022-07-26T15:56:51.998Z,6.05
2022-07-26T15:59:18.904Z,9.60
2022-07-26T16:01:45.776Z,7.82
2022-07-26T16:04:13.299Z,6.78
2022-07-26T16:06:40.673Z,7.47
2022-07-26T16:09:22.921Z,7.03
2022-07-26T16:11:50.330Z,6.88
2022-07-26T16:14:18.030Z,12.15
2022-07-26T16:16:45.584Z,7.85
2022-07-26T16:19:13.256Z,7.57
2022-07-26T16:21:41.010Z,6.68
2022-07-26T16:24:08.354Z,9.18
2022-07-26T16:26:36.136Z,8.25
2022-07-26T16:29:04.139Z,8.10
2022-07-26T16:31:31.456Z,12.10
2022-07-26T16:33:58.420Z,9.40
2022-07-26T16:36:25.842Z,7.45
2022-07-26T16:38:52.756Z,10.93
2022-07-26T16:41:19.872Z,7.38
2022-07-26T16:43:46.997Z,11.25
2022-07-26T16:46:14.227Z,9.80
2022-07-26T16:48:41.228Z,6.63
2022-07-26T16:51:08.353Z,9.15
2022-07-26T16:53:35.463Z,18.45
2022-07-26T16:56:02.451Z,11.93
2022-07-26T16:58:29.461Z,9.80
2022-07-26T17:00:56.430Z,14.05
2022-07-26T17:03:23.917Z,10.85
2022-07-26T17:05:51.326Z,8.00
2022-07-26T17:08:18.397Z,7.57
2022-07-26T17:10:45.586Z,7.05
2022-07-26T17:13:12.707Z,10.35
2022-07-26T17:15:39.613Z,6.15
2022-07-26T17:18:06.528Z,8.23
2022-07-26T17:20:33.496Z,7.07
2022-07-26T17:23:00.514Z,6.90
2022-07-26T17:25:27.627Z,5.53
2022-07-26T17:27:54.635Z,9.77
2022-07-26T17:30:21.617Z,8.90
2022-07-26T17:32:48.643Z,8.20
2022-07-26T17:35:15.670Z,7.30
2022-07-26T17:37:42.651Z,7.13
2022-07-26T17:40:10.398Z,6.50
2022-07-26T17:42:37.926Z,8.88
2022-07-26T17:45:06.668Z,5.97
2022-07-26T17:47:33.694Z,9.35
2022-07-26T17:52:52.693Z,6.07
2022-07-26T17:55:20.209Z,14.05
2022-07-26T17:57:49.575Z,8.52
2022-07-26T18:00:21.975Z,6.80
2022-07-26T18:02:49.308Z,8.95
2022-07-26T18:05:16.851Z,7.70
2022-07-26T18:07:43.883Z,6.22
2022-07-26T18:10:11.612Z,6.00
2022-07-26T18:12:38.808Z,6.97
2022-07-26T18:15:07.633Z,7.75
2022-07-26T18:17:34.866Z,9.73
2022-07-26T18:20:01.852Z,9.13
2022-07-26T18:22:28.812Z,10.63
2022-07-26T18:24:55.770Z,8.82
2022-07-26T18:27:23.623Z,6.57
2022-07-26T18:29:50.554Z,7.07
2022-07-26T18:32:19.332Z,10.98
2022-07-26T18:34:52.088Z,8.52
2022-07-26T18:37:20.629Z,6.18
2022-07-26T18:39:53.973Z,8.00
2022-07-26T18:42:24.121Z,8.32
2022-07-26T18:44:51.142Z,7.55
2022-07-26T18:47:18.254Z,8.18
2022-07-26T18:49:45.236Z,5.63
2022-07-26T18:52:12.420Z,8.93
2022-07-26T18:54:40.506Z,12.15
2022-07-26T18:57:07.509Z,8.00
2022-07-26T18:59:34.566Z,8.65
2022-07-26T19:02:01.657Z,6.60
2022-07-26T19:04:28.753Z,6.20
2022-07-26T19:06:56.062Z,8.85
2022-07-26T19:09:23.185Z,5.20
2022-07-26T19:11:50.239Z,6.97
2022-07-26T19:14:17.580Z,6.22
2022-07-26T19:16:44.612Z,7.47
2022-07-26T19:19:11.970Z,7.47
2022-07-26T19:21:40.949Z,10.75
2022-07-26T19:24:07.933Z,8.73
2022-07-26T19:26:35.901Z,7.45
2022-07-26T19:29:02.841Z,5.43
2022-07-26T19:31:29.892Z,10.32
2022-07-26T19:33:56.852Z,5.13
2022-07-26T19:36:26.469Z,7.53
2022-07-26T19:38:56.728Z,7.13
2022-07-26T19:41:23.983Z,4.65
2022-07-26T19:43:50.966Z,5.80
2022-07-26T19:46:18.003Z,6.30
2022-07-26T19:48:45.311Z,6.57
2022-07-26T19:51:12.427Z,6.50
2022-07-26T19:53:39.519Z,6.00
2022-07-26T19:56:07.957Z,8.77
2022-07-26T19:58:35.103Z,5.68
2022-07-26T20:01:02.418Z,6.13
2022-07-26T20:03:29.431Z,11.00
2022-07-26T20:05:57.843Z,7.15
2022-07-26T20:08:25.312Z,6.57
2022-07-26T20:10:52.598Z,7.30
2022-07-26T20:13:19.621Z,5.90
2022-07-26T20:15:49.322Z,11.20
2022-07-26T20:18:19.560Z,7.63
2022-07-26T20:20:46.591Z,7.43
2022-07-26T20:23:13.636Z,8.20
2022-07-26T20:25:40.728Z,6.15
2022-07-26T20:28:07.718Z,6.72
2022-07-26T20:30:34.794Z,9.27
2022-07-26T20:33:01.854Z,7.82
2022-07-26T20:35:29.227Z,5.75
2022-07-26T20:37:56.173Z,8.15
2022-07-26T20:40:23.466Z,7.75
2022-07-26T20:42:51.691Z,6.72
2022-07-26T20:45:18.631Z,7.35
2022-07-26T20:47:45.479Z,7.25
2022-07-26T20:50:12.703Z,5.78
2022-07-26T20:52:39.979Z,8.50
2022-07-26T20:55:07.634Z,6.75
2022-07-26T20:57:35.480Z,5.20
2022-07-26T21:00:05.996Z,7.28
2022-07-26T21:02:33.011Z,7.25
2022-07-26T21:04:59.886Z,5.20
2022-07-26T21:07:55.983Z,8.70
2022-07-26T21:10:14.071Z,5.72
2022-07-26T21:12:41.536Z,6.72
2022-07-26T21:15:08.828Z,4.30
2022-07-26T21:17:35.835Z,8.05
2022-07-26T21:20:03.951Z,6.50
2022-07-26T21:22:30.937Z,8.98
2022-07-26T21:24:57.841Z,7.03
2022-07-26T21:27:24.815Z,8.80
2022-07-26T21:29:51.786Z,7.97
2022-07-26T21:32:18.655Z,7.57
2022-07-26T21:34:45.571Z,5.20
2022-07-26T21:37:12.534Z,5.20
2022-07-26T21:39:39.337Z,7.57
2022-07-26T21:42:06.182Z,7.15
2022-07-26T21:44:33.076Z,7.45
2022-07-26T21:47:00.034Z,8.93
2022-07-26T21:49:26.997Z,6.28
2022-07-26T21:51:53.996Z,5.80
2022-07-26T21:54:20.992Z,4.65
2022-07-26T21:56:47.847Z,34.65
2022-07-26T21:59:15.226Z,32.78
2022-07-26T22:01:42.841Z,9.25
2022-07-26T22:04:10.337Z,18.05
2022-07-26T22:06:37.693Z,24.60
2022-07-26T22:09:05.335Z,7.97
2022-07-26T22:11:32.377Z,10.65
2022-07-26T22:13:59.242Z,7.50
2022-07-26T22:16:26.249Z,6.53
2022-07-26T22:18:53.083Z,6.30
2022-07-26T22:21:19.938Z,5.53
2022-07-26T22:23:46.973Z,7.47
2022-07-26T22:26:14.271Z,5.78
2022-07-26T22:28:41.222Z,5.15
2022-07-26T22:31:08.119Z,5.32
2022-07-26T22:33:35.066Z,9.85
2022-07-26T22:36:01.920Z,5.68
2022-07-26T22:38:30.454Z,7.32
2022-07-26T22:40:57.394Z,8.52
2022-07-26T22:43:24.352Z,8.40
2022-07-26T22:45:51.519Z,5.78
2022-07-26T22:48:18.510Z,5.57
2022-07-26T22:50:45.406Z,6.80
2022-07-26T22:53:12.288Z,5.78
2022-07-26T22:55:39.395Z,5.43
2022-07-26T22:58:06.260Z,6.80
2022-07-26T23:00:33.237Z,4.03
2022-07-26T23:02:59.979Z,4.70
2022-07-26T23:05:36.621Z,13.38
2022-07-26T23:08:43.903Z,13.23
2022-07-26T23:11:00.712Z,4.15
2022-07-26T23:13:27.719Z,4.07
2022-07-26T23:16:00.320Z,5.13
2022-07-26T23:18:28.342Z,3.78
2022-07-26T23:20:55.179Z,4.47
2022-07-26T23:23:22.173Z,4.90
2022-07-26T23:25:51.043Z,5.63
2022-07-26T23:28:24.788Z,5.68
2022-07-26T23:31:06.721Z,5.80
2022-07-26T23:33:52.366Z,5.95
2022-07-26T23:36:24.515Z,4.40
2022-07-26T23:38:51.899Z,5.32
2022-07-26T23:41:19.427Z,4.15
2022-07-26T23:43:46.438Z,5.93
2022-07-26T23:46:13.436Z,4.03
2022-07-26T23:48:40.530Z,6.65
2022-07-26T23:51:07.811Z,5.05
2022-07-26T23:53:34.950Z,5.75
2022-07-26T23:56:01.995Z,4.68
2022-07-26T23:58:28.968Z,4.55
